createdAt,value
2022-08-26T00:01:46.534Z,4.93
2022-08-26T00:04:13.324Z,5.50
2022-08-26T00:06:42.752Z,5.47
2022-08-26T00:09:16.188Z,5.63
2022-08-26T00:11:44.427Z,5.70
2022-08-26T00:14:11.760Z,5.47
2022-08-26T00:16:41.022Z,6.40
2022-08-26T00:19:14.195Z,5.63
2022-08-26T00:21:41.444Z,5.30
2022-08-26T00:24:08.205Z,5.53
2022-08-26T00:26:35.014Z,5.40
2022-08-26T00:29:01.930Z,5.47
2022-08-26T00:31:31.178Z,5.90
2022-08-26T00:33:58.298Z,6.00
2022-08-26T00:36:25.276Z,6.50
2022-08-26T00:38:57.148Z,5.10
2022-08-26T00:41:23.852Z,5.10
2022-08-26T00:43:51.657Z,5.20
2022-08-26T00:46:26.795Z,6.40
2022-08-26T00:49:11.971Z,5.47
2022-08-26T00:51:47.670Z,5.10
2022-08-26T00:54:16.275Z,5.20
2022-08-26T00:56:52.780Z,5.47
2022-08-26T00:59:20.265Z,5.97
2022-08-26T01:01:47.559Z,5.90
2022-08-26T01:04:17.888Z,5.80
2022-08-26T01:06:45.336Z,5.97
2022-08-26T01:09:12.820Z,6.37
2022-08-26T01:11:39.953Z,5.63
2022-08-26T01:14:09.003Z,5.17
2022-08-26T01:16:36.883Z,5.93
2022-08-26T01:19:15.732Z,5.40
2022-08-26T01:22:06.416Z,6.00
2022-08-26T01:24:33.105Z,6.07
2022-08-26T01:27:06.941Z,5.43
2022-08-26T01:29:36.424Z,6.27
2022-08-26T01:32:06.052Z,6.07
2022-08-26T01:34:36.079Z,5.87
2022-08-26T01:37:15.464Z,6.63
2022-08-26T01:39:45.022Z,6.07
2022-08-26T01:42:15.011Z,6.00
2022-08-26T01:45:00.761Z,5.73
2022-08-26T01:47:30.695Z,5.90
2022-08-26T01:50:01.503Z,5.73
2022-08-26T01:52:32.671Z,6.50
2022-08-26T01:55:00.449Z,6.30
2022-08-26T01:57:27.943Z,7.30
2022-08-26T01:59:58.403Z,5.90
2022-08-26T02:02:25.743Z,5.80
2022-08-26T02:05:01.873Z,6.70
2022-08-26T02:07:30.054Z,5.77
2022-08-26T02:09:57.495Z,6.57
2022-08-26T02:12:26.054Z,5.60
2022-08-26T02:14:56.433Z,5.80
2022-08-26T02:17:33.657Z,5.63
2022-08-26T02:20:02.106Z,5.90
2022-08-26T02:22:30.598Z,5.60
2022-08-26T02:25:16.150Z,5.33
2022-08-26T02:27:42.845Z,5.50
2022-08-26T02:30:31.554Z,5.57
2022-08-26T02:33:03.660Z,5.80
2022-08-26T02:35:32.133Z,6.27
2022-08-26T02:38:00.309Z,5.47
2022-08-26T02:40:31.347Z,6.03
2022-08-26T02:42:58.389Z,6.07
2022-08-26T02:45:28.848Z,6.80
2022-08-26T02:47:58.050Z,5.47
2022-08-26T02:50:26.946Z,6.23
2022-08-26T02:52:53.793Z,6.13
2022-08-26T02:55:20.693Z,6.13
2022-08-26T02:57:51.974Z,5.53
2022-08-26T03:00:18.797Z,7.30
2022-08-26T03:02:46.082Z,5.47
2022-08-26T03:05:12.874Z,6.10
2022-08-26T03:07:39.552Z,5.53
2022-08-26T03:10:08.661Z,5.73
2022-08-26T03:12:37.005Z,5.60
2022-08-26T03:15:17.530Z,5.50
2022-08-26T03:17:49.045Z,5.40
2022-08-26T03:20:17.655Z,6.33
2022-08-26T03:22:45.009Z,6.10
2022-08-26T03:25:13.908Z,5.60
2022-08-26T03:27:43.022Z,7.00
2022-08-26T03:30:30.712Z,6.10
2022-08-26T03:32:57.612Z,5.90
2022-08-26T03:35:25.693Z,6.13
2022-08-26T03:37:53.503Z,6.40
2022-08-26T03:40:20.764Z,6.07
2022-08-26T03:42:48.183Z,6.50
2022-08-26T03:45:17.209Z,6.10
2022-08-26T03:47:44.451Z,6.37
2022-08-26T03:50:14.117Z,6.30
2022-08-26T03:52:43.889Z,6.57
2022-08-26T03:55:11.362Z,7.20
2022-08-26T03:57:38.060Z,8.00
2022-08-26T04:00:07.034Z,5.60
2022-08-26T04:02:33.868Z,7.27
2022-08-26T04:05:00.576Z,5.20
2022-08-26T04:07:27.233Z,7.27
2022-08-26T04:09:58.050Z,5.63
2022-08-26T04:12:25.950Z,6.63
2022-08-26T04:14:53.821Z,5.30
2022-08-26T04:17:25.050Z,5.30
2022-08-26T04:19:54.991Z,5.40
2022-08-26T04:22:24.194Z,5.50
2022-08-26T04:24:52.267Z,5.07
2022-08-26T04:27:19.324Z,6.93
2022-08-26T04:29:46.555Z,5.40
2022-08-26T04:32:14.845Z,5.80
2022-08-26T04:34:43.347Z,5.80
2022-08-26T04:37:11.795Z,6.10
2022-08-26T04:39:38.639Z,6.37
2022-08-26T04:42:05.953Z,5.50
2022-08-26T04:44:35.816Z,5.90
2022-08-26T04:47:02.971Z,6.17
2022-08-26T04:49:35.457Z,6.30
2022-08-26T04:52:03.249Z,5.60
2022-08-26T04:54:31.505Z,5.80
2022-08-26T04:56:58.210Z,5.33
2022-08-26T04:59:25.054Z,5.93
2022-08-26T05:01:56.207Z,5.23
2022-08-26T05:04:23.239Z,5.87
2022-08-26T05:06:50.790Z,5.03
2022-08-26T05:09:19.146Z,5.70
2022-08-26T05:11:51.826Z,5.33
2022-08-26T05:14:20.009Z,5.70
2022-08-26T05:16:47.743Z,6.00
2022-08-26T05:19:17.203Z,4.90
2022-08-26T05:21:46.214Z,6.03
2022-08-26T05:24:14.501Z,5.73
2022-08-26T05:26:41.539Z,6.23
2022-08-26T05:29:11.370Z,6.13
2022-08-26T05:31:38.035Z,5.60
2022-08-26T05:34:05.817Z,5.70
2022-08-26T05:36:34.948Z,6.40
2022-08-26T05:39:03.509Z,5.40
2022-08-26T05:41:34.289Z,5.70
2022-08-26T05:44:06.913Z,5.60
2022-08-26T05:46:35.001Z,5.50
2022-08-26T05:49:03.890Z,6.60
2022-08-26T05:51:31.141Z,6.50
2022-08-26T05:53:58.974Z,5.97
2022-08-26T05:56:27.528Z,5.97
2022-08-26T05:58:58.400Z,6.60
2022-08-26T06:01:26.939Z,5.80
2022-08-26T06:03:57.534Z,6.30
2022-08-26T06:06:41.133Z,6.93
2022-08-26T06:09:11.180Z,6.50
2022-08-26T06:11:38.864Z,6.40
2022-08-26T06:14:07.921Z,6.77
2022-08-26T06:16:38.518Z,6.67
2022-08-26T06:19:10.721Z,6.23
2022-08-26T06:21:41.077Z,7.30
2022-08-26T06:24:29.313Z,6.30
2022-08-26T06:27:01.288Z,8.07
2022-08-26T06:29:30.348Z,7.47
2022-08-26T06:31:58.071Z,7.40
2022-08-26T06:34:29.738Z,7.93
2022-08-26T06:36:59.614Z,7.47
2022-08-26T06:39:26.493Z,9.90
2022-08-26T06:41:57.378Z,10.97
2022-08-26T06:44:24.049Z,9.57
2022-08-26T06:46:51.475Z,10.70
2022-08-26T06:49:18.426Z,11.23
2022-08-26T06:51:53.923Z,9.90
2022-08-26T06:54:21.166Z,9.90
2022-08-26T06:56:48.025Z,10.23
2022-08-26T06:59:15.265Z,13.10
2022-08-26T07:01:44.843Z,13.13
2022-08-26T07:04:14.575Z,10.70
2022-08-26T07:06:47.072Z,11.00
2022-08-26T07:09:14.018Z,10.27
2022-08-26T07:11:41.724Z,9.30
2022-08-26T07:14:09.001Z,9.40
2022-08-26T07:16:35.932Z,10.73
2022-08-26T07:19:10.890Z,8.57
2022-08-26T07:21:41.490Z,9.37
2022-08-26T07:24:11.008Z,10.00
2022-08-26T07:26:38.577Z,11.13
2022-08-26T07:29:06.776Z,10.40
2022-08-26T07:31:39.489Z,11.40
2022-08-26T07:34:10.492Z,10.27
2022-08-26T07:36:37.205Z,9.93
2022-08-26T07:39:04.084Z,9.47
2022-08-26T07:41:30.934Z,9.30
2022-08-26T07:43:59.078Z,10.00
2022-08-26T07:46:27.473Z,9.07
2022-08-26T07:48:57.885Z,11.10
2022-08-26T07:51:26.607Z,11.93
2022-08-26T07:53:54.567Z,10.67
2022-08-26T07:56:23.263Z,12.10
2022-08-26T07:58:52.780Z,12.57
2022-08-26T08:01:24.766Z,13.67
2022-08-26T08:03:53.737Z,12.50
2022-08-26T08:06:23.082Z,11.43
2022-08-26T08:08:55.139Z,12.80
2022-08-26T08:11:22.412Z,11.30
2022-08-26T08:13:56.505Z,11.33
2022-08-26T08:16:28.489Z,10.90
2022-08-26T08:19:00.617Z,10.60
2022-08-26T08:21:27.864Z,10.27
2022-08-26T08:23:57.223Z,10.73
2022-08-26T08:26:25.615Z,11.23
2022-08-26T08:28:57.253Z,11.30
2022-08-26T08:34:16.718Z,12.33
2022-08-26T08:36:46.203Z,11.30
2022-08-26T08:39:13.244Z,11.57
2022-08-26T08:42:16.939Z,10.93
2022-08-26T08:44:51.967Z,10.43
2022-08-26T08:47:27.676Z,10.10
2022-08-26T08:50:00.048Z,12.17
2022-08-26T08:52:31.087Z,10.90
2022-08-26T08:54:58.194Z,11.73
2022-08-26T08:57:40.374Z,11.27
2022-08-26T09:00:17.625Z,11.47
2022-08-26T09:03:19.190Z,13.00
2022-08-26T09:05:51.307Z,11.70
2022-08-26T09:08:23.170Z,14.30
2022-08-26T09:10:59.521Z,14.03
2022-08-26T09:13:27.551Z,12.37
2022-08-26T09:16:10.301Z,12.80
2022-08-26T09:18:56.191Z,13.90
2022-08-26T09:21:25.287Z,12.70
2022-08-26T09:23:55.439Z,13.30
2022-08-26T09:26:30.615Z,13.70
2022-08-26T09:29:05.592Z,13.47
2022-08-26T09:31:35.753Z,13.80
2022-08-26T09:34:28.613Z,12.33
2022-08-26T09:36:58.090Z,12.60
2022-08-26T09:39:29.149Z,14.80
2022-08-26T09:42:04.866Z,13.97
2022-08-26T09:44:32.028Z,14.00
2022-08-26T09:47:03.958Z,13.70
2022-08-26T09:49:35.854Z,13.03
2022-08-26T09:52:17.400Z,14.37
2022-08-26T09:54:46.169Z,15.30
2022-08-26T09:57:27.018Z,15.43
2022-08-26T09:59:55.731Z,15.57
2022-08-26T10:02:22.672Z,16.67
2022-08-26T10:04:54.817Z,15.47
2022-08-26T10:07:45.036Z,15.47
2022-08-26T10:10:20.776Z,16.00
2022-08-26T10:13:13.067Z,15.70
2022-08-26T10:15:55.566Z,15.13
2022-08-26T10:18:37.048Z,13.00
2022-08-26T10:21:11.285Z,12.00
2022-08-26T10:23:51.317Z,13.33
2022-08-26T10:26:28.517Z,12.75
2022-08-26T10:29:10.073Z,13.60
2022-08-26T10:31:46.747Z,14.23
2022-08-26T10:34:16.988Z,14.03
2022-08-26T10:37:22.775Z,14.57
2022-08-26T10:40:00.538Z,14.80
2022-08-26T10:42:41.949Z,15.63
2022-08-26T10:45:15.267Z,14.77
2022-08-26T10:48:05.237Z,15.30
2022-08-26T10:50:38.780Z,16.02
2022-08-26T10:53:13.215Z,14.50
2022-08-26T10:55:42.844Z,13.30
2022-08-26T10:58:55.035Z,14.43
2022-08-26T11:01:43.496Z,14.40
2022-08-26T11:04:35.340Z,14.98
2022-08-26T11:07:46.190Z,14.23
2022-08-26T11:10:18.660Z,14.75
2022-08-26T11:12:45.396Z,15.27
2022-08-26T11:15:25.071Z,14.40
2022-08-26T11:17:51.755Z,15.02
2022-08-26T11:20:35.430Z,14.98
2022-08-26T11:23:21.222Z,13.88
2022-08-26T11:26:09.064Z,14.35
2022-08-26T11:28:50.257Z,13.90
2022-08-26T11:31:25.563Z,14.73
2022-08-26T11:34:00.635Z,14.52
2022-08-26T11:36:36.266Z,13.70
2022-08-26T11:39:25.554Z,13.50
2022-08-26T11:41:55.618Z,12.68
2022-08-26T11:44:37.249Z,12.68
2022-08-26T11:47:07.870Z,12.93
2022-08-26T11:49:38.769Z,14.32
2022-08-26T11:52:20.749Z,12.45
2022-08-26T11:55:11.492Z,15.05
2022-08-26T11:57:47.438Z,15.67
2022-08-26T12:00:27.303Z,16.73
2022-08-26T12:03:02.399Z,17.73
2022-08-26T12:05:38.316Z,16.05
2022-08-26T12:08:09.763Z,17.17
2022-08-26T12:10:37.090Z,16.27
2022-08-26T12:13:06.187Z,16.02
2022-08-26T12:15:34.767Z,15.50
2022-08-26T12:18:29.159Z,17.00
2022-08-26T12:20:59.277Z,15.60
2022-08-26T12:23:34.808Z,16.33
2022-08-26T12:26:10.587Z,15.73
2022-08-26T12:28:46.033Z,18.08
2022-08-26T12:31:24.863Z,16.37
2022-08-26T12:33:52.882Z,12.83
2022-08-26T12:36:28.642Z,11.68
2022-08-26T12:38:58.285Z,9.00
2022-08-26T12:41:59.661Z,9.18
2022-08-26T12:44:32.351Z,12.73
2022-08-26T12:47:42.187Z,10.43
2022-08-26T12:50:16.248Z,10.00
2022-08-26T12:53:15.409Z,10.70
2022-08-26T12:55:48.238Z,10.80
2022-08-26T12:58:31.607Z,11.60
2022-08-26T13:01:04.262Z,12.37
2022-08-26T13:03:34.079Z,11.93
2022-08-26T13:06:23.425Z,11.63
2022-08-26T13:08:52.843Z,12.73
2022-08-26T13:11:20.234Z,12.47
2022-08-26T13:13:51.889Z,13.87
2022-08-26T13:16:22.063Z,15.30
2022-08-26T13:18:51.414Z,15.60
2022-08-26T13:21:21.079Z,20.80
2022-08-26T13:23:48.869Z,29.70
2022-08-26T13:26:15.875Z,21.37
2022-08-26T13:28:42.852Z,15.77
2022-08-26T13:31:14.411Z,19.10
2022-08-26T13:33:42.939Z,21.40
2022-08-26T13:36:12.657Z,20.50
2022-08-26T13:38:39.313Z,24.40
2022-08-26T13:41:06.255Z,23.37
2022-08-26T13:43:33.067Z,24.80
2022-08-26T13:46:01.414Z,26.67
2022-08-26T13:48:28.194Z,27.17
2022-08-26T13:50:55.240Z,29.80
2022-08-26T13:53:22.059Z,32.67
2022-08-26T13:55:49.176Z,33.67
2022-08-26T13:58:16.389Z,34.47
2022-08-26T14:00:43.261Z,33.93
2022-08-26T14:03:13.388Z,36.77
2022-08-26T14:05:40.619Z,38.07
2022-08-26T14:08:08.053Z,37.80
2022-08-26T14:10:35.176Z,37.70
2022-08-26T14:13:02.083Z,36.80
2022-08-26T14:15:32.499Z,38.30
2022-08-26T14:18:01.873Z,32.53
2022-08-26T14:20:30.648Z,29.13
2022-08-26T14:23:20.802Z,30.40
2022-08-26T14:25:45.601Z,29.93
2022-08-26T14:28:12.382Z,30.70
2022-08-26T14:30:43.852Z,34.60
2022-08-26T14:33:13.232Z,34.93
2022-08-26T14:35:40.550Z,37.73
2022-08-26T14:38:16.477Z,35.17
2022-08-26T14:40:44.905Z,35.50
2022-08-26T14:43:16.244Z,37.87
2022-08-26T14:45:45.122Z,34.67
2022-08-26T14:48:11.866Z,38.47
2022-08-26T14:50:38.651Z,37.77
2022-08-26T14:53:24.065Z,37.77
2022-08-26T14:55:50.772Z,34.20
2022-08-26T14:58:17.451Z,39.90
2022-08-26T15:00:44.240Z,40.10
2022-08-26T15:03:11.166Z,41.60
2022-08-26T15:05:39.770Z,43.03
2022-08-26T15:08:14.917Z,43.60
2022-08-26T15:10:41.595Z,44.70
2022-08-26T15:13:08.274Z,43.60
2022-08-26T15:15:34.990Z,44.50
2022-08-26T15:18:01.931Z,41.00
2022-08-26T15:20:28.837Z,43.03
2022-08-26T15:22:55.616Z,38.97
2022-08-26T15:25:22.461Z,37.87
2022-08-26T15:27:49.142Z,38.40
2022-08-26T15:30:16.529Z,34.53
2022-08-26T15:32:43.415Z,36.33
2022-08-26T15:35:10.123Z,33.20
2022-08-26T15:37:36.965Z,32.40
2022-08-26T15:40:05.024Z,31.17
2022-08-26T15:42:31.871Z,31.77
2022-08-26T15:44:58.555Z,29.23
2022-08-26T15:47:25.269Z,27.10
2022-08-26T15:49:51.951Z,28.23
2022-08-26T15:52:19.654Z,31.23
2022-08-26T15:54:46.311Z,28.10
2022-08-26T15:57:15.339Z,29.43
2022-08-26T15:59:43.170Z,28.57
2022-08-26T16:02:10.515Z,26.83
2022-08-26T16:04:37.510Z,29.50
2022-08-26T16:07:04.399Z,26.57
2022-08-26T16:09:31.078Z,26.67
2022-08-26T16:12:00.119Z,26.10
2022-08-26T16:14:26.954Z,24.73
2022-08-26T16:16:53.647Z,24.63
2022-08-26T16:19:21.268Z,23.60
2022-08-26T16:21:49.104Z,23.00
2022-08-26T16:24:16.314Z,24.20
2022-08-26T16:26:44.230Z,24.27
2022-08-26T16:29:13.164Z,23.50
2022-08-26T16:31:40.193Z,23.43
2022-08-26T16:34:08.488Z,20.23
2022-08-26T16:36:37.529Z,21.67
2022-08-26T16:39:06.480Z,21.20
2022-08-26T16:41:33.865Z,21.17
2022-08-26T16:44:00.596Z,22.93
2022-08-26T16:46:28.592Z,23.00
2022-08-26T16:48:57.032Z,20.83
2022-08-26T16:51:27.015Z,19.93
2022-08-26T16:53:55.125Z,19.57
2022-08-26T16:56:30.571Z,18.27
2022-08-26T16:59:00.934Z,19.07
2022-08-26T17:01:28.394Z,19.50
2022-08-26T17:03:55.112Z,18.70
2022-08-26T17:06:21.913Z,18.87
2022-08-26T17:08:49.126Z,17.93
2022-08-26T17:11:16.140Z,19.40
2022-08-26T17:13:42.802Z,18.10
2022-08-26T17:16:11.767Z,20.83
2022-08-26T17:18:38.822Z,19.13
2022-08-26T17:21:13.292Z,19.27
2022-08-26T17:23:41.504Z,18.97
2022-08-26T17:26:09.041Z,18.90
2022-08-26T17:28:36.146Z,18.57
2022-08-26T17:31:03.426Z,22.20
2022-08-26T17:33:30.567Z,20.60
2022-08-26T17:35:57.952Z,20.07
2022-08-26T17:38:25.471Z,19.63
2022-08-26T17:40:52.192Z,20.70
2022-08-26T17:43:19.541Z,19.50
2022-08-26T17:45:46.237Z,18.07
2022-08-26T17:48:13.026Z,19.77
2022-08-26T17:50:41.197Z,19.00
2022-08-26T17:53:08.820Z,20.50
2022-08-26T17:55:41.742Z,21.00
2022-08-26T17:58:11.887Z,18.00
2022-08-26T18:00:45.048Z,17.17
2022-08-26T18:03:11.874Z,18.40
2022-08-26T18:05:38.648Z,17.47
2022-08-26T18:08:05.324Z,17.63
2022-08-26T18:10:32.028Z,19.07
2022-08-26T18:12:58.673Z,17.10
2022-08-26T18:15:25.438Z,20.87
2022-08-26T18:17:52.144Z,19.07
2022-08-26T18:20:19.646Z,20.90
2022-08-26T18:22:47.858Z,20.83
2022-08-26T18:25:15.542Z,19.57
2022-08-26T18:27:42.739Z,20.27
2022-08-26T18:30:21.534Z,20.00
2022-08-26T18:32:49.700Z,19.77
2022-08-26T18:35:16.792Z,20.03
2022-08-26T18:37:44.370Z,20.13
2022-08-26T18:40:13.441Z,18.53
2022-08-26T18:42:41.335Z,20.07
2022-08-26T18:45:09.333Z,21.60
2022-08-26T18:47:36.084Z,20.80
2022-08-26T18:50:03.839Z,19.53
2022-08-26T18:52:31.877Z,19.73
2022-08-26T18:54:59.395Z,19.93
2022-08-26T18:57:26.126Z,19.00
2022-08-26T18:59:52.785Z,19.30
2022-08-26T19:02:19.597Z,20.77
2022-08-26T19:04:46.530Z,19.23
2022-08-26T19:07:14.469Z,19.60
2022-08-26T19:09:41.215Z,17.77
2022-08-26T19:12:09.142Z,18.93
2022-08-26T19:14:36.277Z,17.93
2022-08-26T19:17:03.922Z,17.60
2022-08-26T19:19:31.680Z,19.00
2022-08-26T19:21:58.443Z,17.53
2022-08-26T19:24:27.443Z,17.50
2022-08-26T19:26:58.885Z,17.63
2022-08-26T19:29:31.999Z,16.50
2022-08-26T19:31:58.959Z,16.20
2022-08-26T19:34:25.721Z,16.57
2022-08-26T19:36:54.034Z,18.10
2022-08-26T19:39:21.545Z,16.67
2022-08-26T19:41:48.506Z,16.70
2022-08-26T19:44:36.140Z,17.53
2022-08-26T19:47:03.647Z,15.93
2022-08-26T19:49:31.443Z,18.50
2022-08-26T19:51:58.168Z,17.53
2022-08-26T19:54:25.603Z,16.17
2022-08-26T19:56:52.470Z,17.00
2022-08-26T19:59:19.214Z,14.47
2022-08-26T20:01:45.922Z,16.43
2022-08-26T20:04:27.519Z,16.53
2022-08-26T20:06:57.699Z,16.10
2022-08-26T20:09:31.091Z,14.53
2022-08-26T20:11:58.014Z,14.83
2022-08-26T20:14:26.393Z,14.50
2022-08-26T20:16:53.260Z,14.57
2022-08-26T20:19:38.509Z,15.37
2022-08-26T20:22:06.067Z,15.10
2022-08-26T20:24:33.224Z,15.07
2022-08-26T20:27:02.290Z,13.20
2022-08-26T20:29:32.174Z,14.00
2022-08-26T20:31:58.947Z,14.77
2022-08-26T20:34:26.231Z,15.27
2022-08-26T20:36:52.977Z,12.90
2022-08-26T20:39:23.534Z,14.07
2022-08-26T20:41:53.200Z,14.33
2022-08-26T20:44:19.869Z,14.47
2022-08-26T20:46:46.571Z,14.17
2022-08-26T20:49:13.449Z,13.70
2022-08-26T20:51:42.703Z,13.80
2022-08-26T20:54:11.895Z,16.60
2022-08-26T20:56:39.221Z,15.13
2022-08-26T20:59:07.223Z,15.13
2022-08-26T21:01:35.878Z,16.03
2022-08-26T21:04:05.206Z,13.60
2022-08-26T21:06:35.031Z,13.70
2022-08-26T21:09:03.662Z,12.57
2022-08-26T21:11:30.706Z,13.00
2022-08-26T21:14:15.715Z,13.30
2022-08-26T21:16:44.301Z,13.73
2022-08-26T21:19:13.738Z,13.27
2022-08-26T21:21:41.339Z,13.40
2022-08-26T21:24:08.770Z,12.70
2022-08-26T21:26:35.579Z,13.40
2022-08-26T21:29:02.980Z,12.80
2022-08-26T21:31:31.717Z,12.80
2022-08-26T21:33:59.014Z,12.77
2022-08-26T21:36:29.413Z,14.00
2022-08-26T21:38:57.664Z,13.33
2022-08-26T21:41:25.276Z,12.30
2022-08-26T21:43:55.013Z,12.40
2022-08-26T21:46:23.806Z,12.37
2022-08-26T21:48:58.037Z,12.77
2022-08-26T21:51:28.198Z,12.37
2022-08-26T21:53:56.906Z,12.30
2022-08-26T21:56:26.233Z,12.17
2022-08-26T21:58:54.911Z,11.67
2022-08-26T22:01:24.560Z,11.43
2022-08-26T22:03:52.550Z,12.50
2022-08-26T22:06:22.348Z,12.50
2022-08-26T22:08:49.221Z,13.00
2022-08-26T22:11:16.436Z,12.43
2022-08-26T22:13:43.960Z,13.03
2022-08-26T22:16:11.394Z,12.90
2022-08-26T22:18:38.966Z,12.20
2022-08-26T22:21:08.639Z,12.50
2022-08-26T22:23:36.735Z,12.50
2022-08-26T22:26:05.110Z,12.50
2022-08-26T22:28:31.822Z,12.30
2022-08-26T22:30:58.783Z,12.10
2022-08-26T22:33:25.795Z,11.67
2022-08-26T22:35:52.962Z,12.13
2022-08-26T22:38:21.002Z,11.17
2022-08-26T22:40:50.736Z,11.20
2022-08-26T22:43:18.842Z,11.33
2022-08-26T22:45:47.954Z,10.73
2022-08-26T22:48:18.302Z,10.67
2022-08-26T22:50:47.092Z,10.43
2022-08-26T22:53:15.477Z,11.23
2022-08-26T22:55:43.391Z,11.20
2022-08-26T22:58:11.578Z,10.50
2022-08-26T23:00:40.181Z,11.90
2022-08-26T23:03:07.446Z,11.30
2022-08-26T23:05:34.795Z,10.23
2022-08-26T23:08:01.915Z,11.60
2022-08-26T23:10:28.864Z,10.80
2022-08-26T23:12:55.580Z,10.63
2022-08-26T23:15:22.506Z,9.70
2022-08-26T23:17:51.366Z,10.63
2022-08-26T23:20:26.263Z,8.63
2022-08-26T23:22:53.463Z,8.77
2022-08-26T23:25:20.712Z,10.20
2022-08-26T23:27:47.641Z,10.80
2022-08-26T23:30:18.632Z,10.00
2022-08-26T23:32:45.491Z,9.30
2022-08-26T23:35:14.301Z,10.77
2022-08-26T23:37:44.093Z,9.67
2022-08-26T23:40:46.323Z,9.50
2022-08-26T23:43:13.009Z,9.10
2022-08-26T23:45:39.962Z,9.80
2022-08-26T23:48:07.833Z,9.43
2022-08-26T23:50:54.061Z,9.60
2022-08-26T23:53:22.585Z,9.83
2022-08-26T23:55:51.890Z,10.80
2022-08-26T23:58:20.657Z,9.50
